Lilypad — WDD9770 — position and weather

sailwx.info

Track history (hours):
 
Tides and Currents Weather Stations Pressure Air Temp Water Temp Dewpoint Dewpoint Depression Visibility Wind Speed Wind Dir Waves Ship Positions

Lilypad

More information available from US FCC via Universal Licensing System and Coast Guard Vessel Documentation Center.

Last reported at 2014-Jul-22 15:28 UTC. Time now 2014-Jul-22 23:36 UTC.
Position N 50°14' W 125°23'.

Length 18 m; draft 3 m.

Type: Pleasure craft. MMSI: 367316110.

Date/timePositionNaut miles runAvg speedWind from/ knotsBaromVisibWave heightAir tempDewpointWater temp
2014-Jul-22 15:28N 50°14' W 125°23'17 0.9
2014-Jul-21 21:29N 49°59' W 125°12'8 8.2
2014-Jul-21 20:33N 49°57' W 125°00'2 8.7
2014-Jul-21 20:17N 49°56' W 124°57'6 8.4
2014-Jul-21 19:31N 49°54' W 124°47'8 8.1
2014-Jul-21 18:30N 49°51' W 124°36'8 8.7
2014-Jul-21 17:33N 49°45' W 124°26'9 8.6
2014-Jul-21 16:34N 49°41' W 124°15'8 8.1
2014-Jul-21 15:33N 49°38' W 124°03'1 0.1
2014-Jul-20 23:16N 49°38' W 124°01'2 3.5
2014-Jul-20 22:33N 49°36' W 124°03'8 8.0
2014-Jul-20 21:34N 49°29' W 123°56'8 8.3
2014-Jul-20 20:33N 49°21' W 123°55'8 8.2
2014-Jul-20 19:33N 49°13' W 123°54'8 8.1
2014-Jul-20 18:31N 49°06' W 123°46'8 8.2
2014-Jul-20 17:30N 49°00' W 123°37'9 8.0
2014-Jul-20 16:23N 48°54' W 123°27'2 0.1
2014-Jul-19 20:30N 48°53' W 123°24'7 6.9
2014-Jul-19 19:30N 48°47' W 123°21'  
Track history (hours):
 
Tides and Currents Weather Stations Pressure Air Temp Water Temp Dewpoint Dewpoint Depression Visibility Wind Speed Wind Dir Waves Ship Positions

Lilypad

More information available from US FCC via Universal Licensing System and Coast Guard Vessel Documentation Center.

Last reported at 2014-Jul-22 15:28 UTC. Time now 2014-Jul-22 23:36 UTC.
Position N 50°14' W 125°23'.

Length 18 m; draft 3 m.

Type: Pleasure craft. MMSI: 367316110.

Date/timePositionNaut miles runAvg speedWind from/ knotsBaromVisibWave heightAir tempDewpointWater temp
2014-Jul-22 15:28N 50°14' W 125°23'17 0.9
2014-Jul-21 21:29N 49°59' W 125°12'8 8.2
2014-Jul-21 20:33N 49°57' W 125°00'2 8.7
2014-Jul-21 20:17N 49°56' W 124°57'6 8.4
2014-Jul-21 19:31N 49°54' W 124°47'8 8.1
2014-Jul-21 18:30N 49°51' W 124°36'8 8.7
2014-Jul-21 17:33N 49°45' W 124°26'9 8.6
2014-Jul-21 16:34N 49°41' W 124°15'8 8.1
2014-Jul-21 15:33N 49°38' W 124°03'1 0.1
2014-Jul-20 23:16N 49°38' W 124°01'2 3.5
2014-Jul-20 22:33N 49°36' W 124°03'8 8.0
2014-Jul-20 21:34N 49°29' W 123°56'8 8.3
2014-Jul-20 20:33N 49°21' W 123°55'8 8.2
2014-Jul-20 19:33N 49°13' W 123°54'8 8.1
2014-Jul-20 18:31N 49°06' W 123°46'8 8.2
2014-Jul-20 17:30N 49°00' W 123°37'9 8.0
2014-Jul-20 16:23N 48°54' W 123°27'2 0.1
2014-Jul-19 20:30N 48°53' W 123°24'7 6.9
2014-Jul-19 19:30N 48°47' W 123°21'  

Dump ship's entire track history